Main page
METAR-TAF:

METAR-TAF

Airports :

José Martí International Airport

Havana, Cuba

latitude: 22-59N, longitude: 082-24W, elevation: 59 m

Current weather observation

The report was made 51 minutes ago, at 11:55 UTC
Wind 1 kt from variable directions
Temperature 23°C
Humidity 94%
Pressure 1018 hPa
Visibility: 9000 m
Few clouds at a height of 2500 ft, Towering cumulus.

METAR: MUHA 181155Z VRB01KT 9000 FEW025TCU 23/22 Q1018

Time: 08:46 (12:46 UTC)

Forecast

The report was made 1 hour and 46 minutes ago, at 11:00 UTC
Forecast valid from 18 at 12 UTC to 19 at 12 UTC
Wind 5 kt from the East
Visibility: 9000 m
Few clouds at a height of 3000 ft
Becoming
from 18 at 14 UTC to 18 at 16 UTC
Wind 12 kt from the East
Temporary
from 18 at 20 UTC to 18 at 23 UTC
Broken clouds at a height of 3000 ft
Becoming
from 19 at 02 UTC to 19 at 04 UTC
Wind 3 kt from the East

TAF: MUHA 181100Z 1812/1912 09005KT 9000 FEW030 BECMG 1814/1816 09012KT TEMPO 1820/1823 BKN030 BECMG 1902/1904 09003KT

Weather observations and forecasts of more than 4000 airports (METAR and TAF reports).

The available stations are represented by yellow and red dots on the map.

Hover mouse over dot to see the name of the station.

Then click to see weather observations and forecasts.

To change the map : click on the green buttons with a black cross to zoom in, on the green button with a dash to zoom out, or on the green arrows for adjacent maps.


METAR-TAF: